PWSweather.com
Personal Weather Stations
Station Observations
RTINEZ
TerrassaES 08226

TerrassaES 08226

Lat: 41.5762194, Lon: 2.028993700000001

Elevation: 367

Station Type: Watson W8681

Latest ConditionsUpdated 3:00:01 PM GMT+01:01 Thursday, Jul 18, 2019
Currently Today's Max Today's Min Today's Average
Temperature 82.4°F28.0°C 84.9°F29.4°C 68.4°F20.2°C 75.1°F23.9°C
Dew Point 60.8°F16.0°C 62.6°F17.0°C 58.4°F14.7°C 60.8°F16.0°C
Winds 12.1 mph E19.5 kmh E 12.1 mph -19.5 kmh - - 3.2 mph 5.1 kmh
Wind Gusts 14.5 mph23.3 kmh 19.0 mph30.6 kmh - -
Humidity 48% 78% 44% 62%
Pressure 29.94 in1013.9 mb 29.97 in1014.9 mb 28.69 in971.6 mb -
Hour Temp Dew Point Humidity Winds Wind Gusts Pressure Precip Precip Rate Daily Precip Total
03:00 PM 82.4°F28.0°C 60.8°F16.0°C 48% 12.1 mph E19.5 kmh E 14.5 mph23.3 kmh 29.94 in1013.9 mb 0.00 in0.0 mm 0.00 in0.0 mm 0.00 in0.0 mm
02:45 PM 82.0°F27.8°C 61.6°F16.4°C 50% 10.7 mph ESE17.2 kmh ESE 16.8 mph27.0 kmh 29.95 in1014.2 mb 0.00 in0.0 mm 0.00 in0.0 mm 0.00 in0.0 mm
02:30 PM 81.3°F27.4°C 60.9°F16.1°C 50% 9.2 mph ESE14.8 kmh ESE 19.0 mph30.6 kmh 28.72 in972.6 mb 0.00 in0.0 mm 0.00 in0.0 mm 0.00 in0.0 mm
02:15 PM 81.0°F27.2°C 61.7°F16.5°C 52% 10.7 mph ESE17.2 kmh ESE 18.3 mph29.5 kmh 29.94 in1013.9 mb 0.00 in0.0 mm 0.00 in0.0 mm 0.00 in0.0 mm
02:00 PM 82.0°F27.8°C 62.2°F16.8°C 51% 8.3 mph ESE13.4 kmh ESE 15.2 mph24.5 kmh 29.95 in1014.2 mb 0.00 in0.0 mm 0.00 in0.0 mm 0.00 in0.0 mm
01:45 PM 81.9°F27.7°C 61.4°F16.3°C 50% 6.0 mph SSE9.7 kmh SSE 16.8 mph27.0 kmh 28.72 in972.6 mb 0.00 in0.0 mm 0.00 in0.0 mm 0.00 in0.0 mm
01:30 PM 82.0°F27.8°C 62.2°F16.8°C 51% 9.2 mph SE14.8 kmh SE 16.8 mph27.0 kmh 29.94 in1013.9 mb 0.00 in0.0 mm 0.00 in0.0 mm 0.00 in0.0 mm
01:15 PM 82.8°F28.2°C 59.3°F15.2°C 45% 6.9 mph SW11.1 kmh SW 12.1 mph19.5 kmh 28.72 in972.6 mb 0.00 in0.0 mm 0.00 in0.0 mm 0.00 in0.0 mm
01:00 PM 83.5°F28.6°C 61.2°F16.2°C 47% 0.7 mph SW1.1 kmh SW 6.9 mph11.1 kmh 28.72 in972.6 mb 0.00 in0.0 mm 0.00 in0.0 mm 0.00 in0.0 mm
12:45 PM 82.8°F28.2°C 61.1°F16.2°C 48% 0.7 mph WSW1.1 kmh WSW 11.4 mph18.3 kmh 28.72 in972.6 mb 0.00 in0.0 mm 0.00 in0.0 mm 0.00 in0.0 mm
12:30 PM 84.4°F29.1°C 60.1°F15.6°C 44% 6.0 mph SW9.7 kmh SW 10.7 mph17.2 kmh 28.73 in972.9 mb 0.00 in0.0 mm 0.00 in0.0 mm 0.00 in0.0 mm
12:15 PM 84.9°F29.4°C 62.5°F16.9°C 47% 0.7 mph WSW1.1 kmh WSW 10.7 mph17.2 kmh 29.95 in1014.2 mb 0.00 in0.0 mm 0.00 in0.0 mm 0.00 in0.0 mm
12:00 PM 82.4°F28.0°C 62.5°F16.9°C 51% 1.6 mph SW2.6 kmh SW 11.4 mph18.3 kmh 29.95 in1014.2 mb 0.00 in0.0 mm 0.00 in0.0 mm 0.00 in0.0 mm
11:45 AM 83.1°F28.4°C 60.2°F15.7°C 46% 3.8 mph S6.1 kmh S 7.6 mph12.2 kmh 29.96 in1014.6 mb 0.00 in0.0 mm 0.00 in0.0 mm 0.00 in0.0 mm
11:30 AM 82.0°F27.8°C 61.0°F16.1°C 49% 3.8 mph SW6.1 kmh SW 8.3 mph13.4 kmh 28.73 in972.9 mb 0.00 in0.0 mm 0.00 in0.0 mm 0.00 in0.0 mm
11:15 AM 82.0°F27.8°C 61.0°F16.1°C 49% 0.7 mph SW1.1 kmh SW 6.0 mph9.7 kmh 29.96 in1014.6 mb 0.00 in0.0 mm 0.00 in0.0 mm 0.00 in0.0 mm
11:00 AM 81.1°F27.3°C 61.3°F16.3°C 51% 1.6 mph WNW2.6 kmh WNW 8.3 mph13.4 kmh 28.74 in973.2 mb 0.00 in0.0 mm 0.00 in0.0 mm 0.00 in0.0 mm
10:45 AM 82.4°F28.0°C 62.5°F16.9°C 51% 2.2 mph WSW3.5 kmh WSW 8.3 mph13.4 kmh 28.74 in973.2 mb 0.00 in0.0 mm 0.00 in0.0 mm 0.00 in0.0 mm
10:30 AM 81.3°F27.4°C 60.4°F15.8°C 49% 0.7 mph WSW1.1 kmh WSW 6.0 mph9.7 kmh 28.74 in973.2 mb 0.00 in0.0 mm 0.00 in0.0 mm 0.00 in0.0 mm
10:15 AM 79.9°F26.6°C 59.6°F15.3°C 50% 4.5 mph W7.2 kmh W 6.9 mph11.1 kmh 28.75 in973.6 mb 0.00 in0.0 mm 0.00 in0.0 mm 0.00 in0.0 mm
10:00 AM 82.9°F28.3°C 61.9°F16.6°C 49% 0.7 mph SW1.1 kmh SW 4.5 mph7.2 kmh 29.96 in1014.6 mb 0.00 in0.0 mm 0.00 in0.0 mm 0.00 in0.0 mm
09:45 AM 82.0°F27.8°C 61.0°F16.1°C 49% 1.6 mph SE2.6 kmh SE 5.4 mph8.7 kmh 28.74 in973.2 mb 0.00 in0.0 mm 0.00 in0.0 mm 0.00 in0.0 mm
09:30 AM 78.8°F26.0°C 60.3°F15.7°C 53% 2.2 mph SE3.5 kmh SE 6.0 mph9.7 kmh 29.96 in1014.6 mb 0.00 in0.0 mm 0.00 in0.0 mm 0.00 in0.0 mm
09:15 AM 77.4°F25.2°C 60.5°F15.8°C 56% 5.4 mph SE8.7 kmh SE 6.9 mph11.1 kmh 29.97 in1014.9 mb 0.00 in0.0 mm 0.00 in0.0 mm 0.00 in0.0 mm
09:00 AM 74.7°F23.7°C 62.6°F17.0°C 66% 1.6 mph SE2.6 kmh SE 7.6 mph12.2 kmh 29.96 in1014.6 mb 0.00 in0.0 mm 0.00 in0.0 mm 0.00 in0.0 mm
08:45 AM 75.0°F23.9°C 61.6°F16.4°C 63% 6.0 mph SE9.7 kmh SE 7.6 mph12.2 kmh 29.95 in1014.2 mb 0.00 in0.0 mm 0.00 in0.0 mm 0.00 in0.0 mm
08:30 AM 75.7°F24.3°C 59.5°F15.3°C 57% 3.1 mph SSE5.0 kmh SSE 6.0 mph9.7 kmh 29.95 in1014.2 mb 0.00 in0.0 mm 0.00 in0.0 mm 0.00 in0.0 mm
08:15 AM 77.4°F25.2°C 58.9°F14.9°C 53% 2.2 mph SE3.5 kmh SE 3.8 mph6.1 kmh 28.73 in972.9 mb 0.00 in0.0 mm 0.00 in0.0 mm 0.00 in0.0 mm
08:00 AM 77.5°F25.3°C 59.6°F15.3°C 54% 2.2 mph E3.5 kmh E 4.5 mph7.2 kmh 29.94 in1013.9 mb 0.00 in0.0 mm 0.00 in0.0 mm 0.00 in0.0 mm
07:45 AM 75.4°F24.1°C 59.6°F15.3°C 58% 1.6 mph N2.6 kmh N 3.1 mph5.0 kmh 28.72 in972.6 mb 0.00 in0.0 mm 0.00 in0.0 mm 0.00 in0.0 mm
07:30 AM 72.5°F22.5°C 61.0°F16.1°C 67% 0.7 mph W1.1 kmh W 6.9 mph11.1 kmh 28.71 in972.2 mb 0.00 in0.0 mm 0.00 in0.0 mm 0.00 in0.0 mm
07:15 AM 71.2°F21.8°C 59.7°F15.4°C 67% 3.8 mph NW6.1 kmh NW 6.9 mph11.1 kmh 29.94 in1013.9 mb 0.00 in0.0 mm 0.00 in0.0 mm 0.00 in0.0 mm
07:00 AM 70.5°F21.4°C 59.1°F15.1°C 67% 4.5 mph NW7.2 kmh NW 9.2 mph14.8 kmh 29.93 in1013.5 mb 0.00 in0.0 mm 0.00 in0.0 mm 0.00 in0.0 mm
06:45 AM 70.7°F21.5°C 58.4°F14.7°C 65% 6.9 mph NW11.1 kmh NW 11.4 mph18.3 kmh 29.93 in1013.5 mb 0.00 in0.0 mm 0.00 in0.0 mm 0.00 in0.0 mm
06:30 AM 69.1°F20.6°C 59.3°F15.2°C 71% 6.0 mph NW9.7 kmh NW 9.2 mph14.8 kmh 29.92 in1013.2 mb 0.00 in0.0 mm 0.00 in0.0 mm 0.00 in0.0 mm
06:15 AM 70.0°F21.1°C 58.5°F14.7°C 67% 6.0 mph NW9.7 kmh NW 9.8 mph15.8 kmh 29.93 in1013.5 mb 0.00 in0.0 mm 0.00 in0.0 mm 0.00 in0.0 mm
06:00 AM 70.3°F21.3°C 58.5°F14.7°C 66% 3.8 mph NW6.1 kmh NW 10.7 mph17.2 kmh 28.70 in971.9 mb 0.00 in0.0 mm 0.00 in0.0 mm 0.00 in0.0 mm
05:45 AM 69.1°F20.6°C 59.3°F15.2°C 71% 5.4 mph WNW8.7 kmh WNW 8.3 mph13.4 kmh 29.92 in1013.2 mb 0.00 in0.0 mm 0.00 in0.0 mm 0.00 in0.0 mm
05:30 AM 68.4°F20.2°C 59.8°F15.4°C 74% 4.5 mph W7.2 kmh W 6.0 mph9.7 kmh 28.70 in971.9 mb 0.00 in0.0 mm 0.00 in0.0 mm 0.00 in0.0 mm
05:15 AM 69.1°F20.6°C 59.7°F15.4°C 72% 2.2 mph W3.5 kmh W 7.6 mph12.2 kmh 29.91 in1012.9 mb 0.00 in0.0 mm 0.00 in0.0 mm 0.00 in0.0 mm
05:00 AM 69.1°F20.6°C 60.5°F15.8°C 74% 2.2 mph NW3.5 kmh NW 4.5 mph7.2 kmh 29.91 in1012.9 mb 0.00 in0.0 mm 0.00 in0.0 mm 0.00 in0.0 mm
04:45 AM 69.1°F20.6°C 62.0°F16.7°C 78% 0.7 mph WSW1.1 kmh WSW 2.2 mph3.5 kmh 28.70 in971.9 mb 0.00 in0.0 mm 0.00 in0.0 mm 0.00 in0.0 mm
04:30 AM 69.1°F20.6°C 62.0°F16.7°C 78% 1.6 mph WNW2.6 kmh WNW 3.8 mph6.1 kmh 29.92 in1013.2 mb 0.00 in0.0 mm 0.00 in0.0 mm 0.00 in0.0 mm
04:15 AM 69.3°F20.7°C 61.4°F16.3°C 76% 0.7 mph NW1.1 kmh NW 3.1 mph5.0 kmh 29.93 in1013.5 mb 0.00 in0.0 mm 0.00 in0.0 mm 0.00 in0.0 mm
04:00 AM 69.3°F20.7°C 61.0°F16.1°C 75% 0.7 mph WNW1.1 kmh WNW 3.1 mph5.0 kmh 28.70 in971.9 mb 0.00 in0.0 mm 0.00 in0.0 mm 0.00 in0.0 mm
03:45 AM 69.3°F20.7°C 61.8°F16.6°C 77% 0.7 mph W1.1 kmh W 3.8 mph6.1 kmh 28.70 in971.9 mb 0.00 in0.0 mm 0.00 in0.0 mm 0.00 in0.0 mm
03:30 AM 69.3°F20.7°C 61.4°F16.3°C 76% Calm Calm 2.2 mph3.5 kmh 28.70 in971.9 mb 0.00 in0.0 mm 0.00 in0.0 mm 0.00 in0.0 mm
03:15 AM 69.1°F20.6°C 61.2°F16.2°C 76% Calm Calm 2.2 mph3.5 kmh 29.92 in1013.2 mb 0.00 in0.0 mm 0.00 in0.0 mm 0.00 in0.0 mm
03:00 AM 69.3°F20.7°C 61.4°F16.3°C 76% 1.6 mph W2.6 kmh W 3.8 mph6.1 kmh 29.92 in1013.2 mb 0.00 in0.0 mm 0.00 in0.0 mm 0.00 in0.0 mm
02:45 AM 69.3°F20.7°C 61.8°F16.6°C 77% 0.7 mph NW1.1 kmh NW 2.2 mph3.5 kmh 28.69 in971.6 mb 0.00 in0.0 mm 0.00 in0.0 mm 0.00 in0.0 mm
02:30 AM 69.3°F20.7°C 61.8°F16.6°C 77% Calm Calm 1.6 mph2.6 kmh 29.92 in1013.2 mb 0.00 in0.0 mm 0.00 in0.0 mm 0.00 in0.0 mm
02:15 AM 69.6°F20.9°C 61.7°F16.5°C 76% 1.6 mph WSW2.6 kmh WSW 5.4 mph8.7 kmh 29.92 in1013.2 mb 0.00 in0.0 mm 0.00 in0.0 mm 0.00 in0.0 mm
02:00 AM 70.0°F21.1°C 61.7°F16.5°C 75% 2.2 mph SW3.5 kmh SW 3.8 mph6.1 kmh 29.92 in1013.2 mb 0.00 in0.0 mm 0.00 in0.0 mm 0.00 in0.0 mm
01:45 AM 70.2°F21.2°C 60.7°F15.9°C 72% 0.7 mph WSW1.1 kmh WSW 1.6 mph2.6 kmh 29.92 in1013.2 mb 0.00 in0.0 mm 0.00 in0.0 mm 0.00 in0.0 mm
01:30 AM 69.8°F21.0°C 60.0°F15.6°C 71% 2.2 mph NW3.5 kmh NW 3.1 mph5.0 kmh 29.93 in1013.5 mb 0.00 in0.0 mm 0.00 in0.0 mm 0.00 in0.0 mm
01:15 AM 69.3°F20.7°C 61.4°F16.3°C 76% 0.7 mph NE1.1 kmh NE 2.2 mph3.5 kmh 29.93 in1013.5 mb 0.00 in0.0 mm 0.00 in0.0 mm 0.00 in0.0 mm
01:00 AM 69.8°F21.0°C 60.4°F15.8°C 72% Calm Calm 2.2 mph3.5 kmh 28.72 in972.6 mb 0.00 in0.0 mm 0.00 in0.0 mm 0.00 in0.0 mm
12:45 AM 69.8°F21.0°C 60.0°F15.6°C 71% 5.4 mph NW8.7 kmh NW 7.6 mph12.2 kmh 29.94 in1013.9 mb 0.00 in0.0 mm 0.00 in0.0 mm 0.00 in0.0 mm
12:30 AM 69.1°F20.6°C 61.2°F16.2°C 76% 3.8 mph WNW6.1 kmh WNW 5.4 mph8.7 kmh 28.72 in972.6 mb 0.00 in0.0 mm 0.00 in0.0 mm 0.00 in0.0 mm
12:15 AM 69.1°F20.6°C 61.6°F16.4°C 77% 0.7 mph W1.1 kmh W 3.1 mph5.0 kmh 28.73 in972.9 mb 0.00 in0.0 mm 0.00 in0.0 mm 0.00 in0.0 mm
12:00 AM 69.8°F21.0°C 60.4°F15.8°C 72% 0.7 mph WNW1.1 kmh WNW 3.8 mph6.1 kmh 28.72 in972.6 mb 0.00 in0.0 mm 0.00 in0.0 mm 0.00 in0.0 mm